createdAt,value
2022-09-07T00:00:16.114Z,101303.08
2022-09-07T00:02:45.959Z,101312.91
2022-09-07T00:05:15.799Z,101319.34
2022-09-07T00:07:45.587Z,101321.48
2022-09-07T00:10:15.124Z,101321.77
2022-09-07T00:12:44.900Z,101331.43
2022-09-07T00:15:15.002Z,101337.48
2022-09-07T00:17:44.777Z,101335.58
2022-09-07T00:20:15.012Z,101343.94
2022-09-07T00:22:46.151Z,101372.95
2022-09-07T00:25:16.072Z,101387.40
2022-09-07T00:27:45.597Z,101380.69
2022-09-07T00:30:16.380Z,101380.69
2022-09-07T00:32:46.315Z,101368.92
2022-09-07T00:35:16.405Z,101337.83
2022-09-07T00:37:46.179Z,101321.65
2022-09-07T00:40:17.621Z,101307.66
2022-09-07T00:42:47.396Z,101312.70
2022-09-07T00:45:22.409Z,101307.87
2022-09-07T00:48:00.746Z,101306.77
2022-09-07T00:50:39.448Z,101306.77
2022-09-07T00:53:29.920Z,101340.00
2022-09-07T00:56:02.034Z,101342.55
2022-09-07T00:58:34.056Z,101329.38
2022-09-07T01:01:03.917Z,101314.73
2022-09-07T01:03:36.409Z,101298.55
2022-09-07T01:06:20.623Z,101300.14
2022-09-07T01:08:51.412Z,101296.25
2022-09-07T01:11:23.826Z,101300.55
2022-09-07T01:13:54.736Z,101302.25
2022-09-07T01:16:49.417Z,101302.85
2022-09-07T01:19:31.085Z,101302.56
2022-09-07T01:22:13.026Z,101294.78
2022-09-07T01:24:48.296Z,101296.57
2022-09-07T01:27:48.083Z,101289.68
2022-09-07T01:30:20.918Z,101287.34
2022-09-07T01:33:02.860Z,101287.20
2022-09-07T01:35:44.111Z,101286.24
2022-09-07T01:38:27.343Z,101286.36
2022-09-07T01:41:12.168Z,101289.39
2022-09-07T01:43:50.744Z,101283.87
2022-09-07T01:46:29.306Z,101291.75
2022-09-07T01:49:11.094Z,101297.34
2022-09-07T01:51:43.904Z,101301.91
2022-09-07T01:54:18.111Z,101302.66
2022-09-07T01:56:51.095Z,101292.06
2022-09-07T01:59:26.280Z,101303.04
2022-09-07T02:02:13.639Z,101299.50
2022-09-07T02:04:52.046Z,101290.88
2022-09-07T02:07:27.278Z,101290.34
2022-09-07T02:10:02.513Z,101294.03
2022-09-07T02:12:37.425Z,101286.12
2022-09-07T02:15:11.415Z,101281.52
2022-09-07T02:17:46.760Z,101274.38
2022-09-07T02:20:21.739Z,101272.48
2022-09-07T02:22:54.618Z,101266.67
2022-09-07T02:25:27.311Z,101263.20
2022-09-07T02:28:00.117Z,101271.13
2022-09-07T02:30:29.685Z,101263.38
2022-09-07T02:32:59.446Z,101258.52
2022-09-07T02:35:29.856Z,101271.55
2022-09-07T02:38:03.487Z,101251.33
2022-09-07T02:40:33.690Z,101251.33
2022-09-07T02:43:06.651Z,101272.78
2022-09-07T02:46:00.305Z,101275.77
2022-09-07T02:48:36.009Z,101273.42
2022-09-07T02:51:11.030Z,101261.94
2022-09-07T02:54:03.169Z,101263.90
2022-09-07T02:56:44.473Z,101260.01
2022-09-07T02:59:32.173Z,101253.67
2022-09-07T03:02:30.252Z,101238.91
2022-09-07T03:05:14.861Z,101242.04
2022-09-07T03:08:05.673Z,101240.64
2022-09-07T03:10:36.985Z,101236.38
2022-09-07T03:13:07.195Z,101236.55
2022-09-07T03:15:37.016Z,101219.91
2022-09-07T03:18:08.567Z,101220.52
2022-09-07T03:20:38.322Z,101220.52
2022-09-07T03:23:08.154Z,101238.57
2022-09-07T03:25:38.516Z,101219.90
2022-09-07T03:28:08.785Z,101219.90
2022-09-07T03:30:40.164Z,101222.95
2022-09-07T03:33:09.983Z,101222.95
2022-09-07T03:35:39.744Z,101242.64
2022-09-07T03:38:10.876Z,101249.01
2022-09-07T03:40:40.927Z,101253.33
2022-09-07T03:43:10.704Z,101250.67
2022-09-07T03:45:40.579Z,101257.56
2022-09-07T03:48:11.476Z,101253.03
2022-09-07T03:50:41.233Z,101246.91
2022-09-07T03:53:11.002Z,101252.30
2022-09-07T03:55:40.847Z,101252.00
2022-09-07T03:58:11.481Z,101258.38
2022-09-07T04:00:43.073Z,101247.67
2022-09-07T04:03:12.837Z,101245.20
2022-09-07T04:05:42.592Z,101242.31
2022-09-07T04:08:13.065Z,101235.23
2022-09-07T04:10:43.392Z,101238.77
2022-09-07T04:13:13.464Z,101250.28
2022-09-07T04:15:42.932Z,101244.80
2022-09-07T04:18:13.137Z,101251.72
2022-09-07T04:20:42.974Z,101245.30
2022-09-07T04:23:13.502Z,101246.02
2022-09-07T04:25:53.305Z,101243.98
2022-09-07T04:28:23.066Z,101235.13
2022-09-07T04:30:52.905Z,101233.48
2022-09-07T04:33:22.988Z,101229.92
2022-09-07T04:35:52.755Z,101209.00
2022-09-07T04:38:22.365Z,101209.00
2022-09-07T04:40:53.660Z,101214.77
2022-09-07T04:43:23.554Z,101213.27
2022-09-07T04:45:53.352Z,101213.27
2022-09-07T04:48:23.192Z,101213.27
2022-09-07T04:50:53.254Z,101212.72
2022-09-07T04:53:23.019Z,101212.63
2022-09-07T04:55:52.857Z,101208.59
2022-09-07T04:58:22.632Z,101212.00
2022-09-07T05:00:52.459Z,101216.39
2022-09-07T05:03:22.520Z,101220.21
2022-09-07T05:05:52.285Z,101226.09
2022-09-07T05:08:22.057Z,101228.62
2022-09-07T05:10:56.643Z,101227.77
2022-09-07T05:13:26.415Z,101231.31
2022-09-07T05:15:56.225Z,101231.31
2022-09-07T05:18:26.263Z,101229.92
2022-09-07T05:20:56.329Z,101238.29
2022-09-07T05:23:26.172Z,101243.44
2022-09-07T05:25:55.943Z,101250.11
2022-09-07T05:28:25.708Z,101254.33
2022-09-07T05:35:59.561Z,101260.30
2022-09-07T05:38:29.878Z,101260.14
2022-09-07T05:40:59.727Z,101257.09
2022-09-07T05:43:30.897Z,101254.73
2022-09-07T05:46:00.738Z,101260.94
2022-09-07T05:48:31.198Z,101262.21
2022-09-07T05:51:01.128Z,101274.28
2022-09-07T05:53:31.233Z,101272.41
2022-09-07T05:56:06.461Z,101266.45
2022-09-07T05:58:33.364Z,101261.33
2022-09-07T06:01:06.325Z,101264.48
2022-09-07T06:03:40.581Z,101260.06
2022-09-07T06:06:12.675Z,101255.92
2022-09-07T06:08:47.761Z,101249.92
2022-09-07T06:11:23.310Z,101258.58
2022-09-07T06:13:53.470Z,101258.58
2022-09-07T06:16:23.242Z,101259.56
2022-09-07T06:18:53.126Z,101254.02
2022-09-07T06:21:24.601Z,101253.34
2022-09-07T06:23:55.364Z,101252.26
2022-09-07T06:26:24.841Z,101252.92
2022-09-07T06:28:57.805Z,101260.94
2022-09-07T06:31:26.271Z,101265.55
2022-09-07T06:33:56.667Z,101265.48
2022-09-07T06:36:28.196Z,101265.44
2022-09-07T06:39:01.589Z,101272.42
2022-09-07T06:44:04.831Z,101278.52
2022-09-07T06:49:06.077Z,101280.28
2022-09-07T06:51:35.860Z,101291.99
2022-09-07T06:56:38.518Z,101288.58
2022-09-07T06:59:08.566Z,101273.81
2022-09-07T07:01:38.349Z,101276.18
2022-09-07T07:04:08.139Z,101283.29
2022-09-07T07:06:39.463Z,101283.03
2022-09-07T07:09:11.631Z,101292.42
2022-09-07T07:11:43.485Z,101291.84
2022-09-07T07:14:15.393Z,101296.34
2022-09-07T07:16:45.316Z,101292.39
2022-09-07T07:19:15.243Z,101296.92
2022-09-07T07:22:07.906Z,101294.08
2022-09-07T07:24:16.606Z,101294.08
2022-09-07T07:26:48.025Z,101296.69
2022-09-07T07:29:18.914Z,101304.91
2022-09-07T07:31:49.144Z,101296.73
2022-09-07T07:34:19.015Z,101296.73
2022-09-07T07:36:48.786Z,101302.70
2022-09-07T07:41:54.453Z,101280.10
2022-09-07T07:44:22.006Z,101285.67
2022-09-07T07:46:52.491Z,101285.67
2022-09-07T07:49:22.285Z,101298.88
2022-09-07T07:54:24.729Z,101309.08
2022-09-07T07:56:54.489Z,101314.09
2022-09-07T07:59:24.235Z,101314.82
2022-09-07T08:01:54.156Z,101319.91
2022-09-07T08:04:24.013Z,101317.10
2022-09-07T08:06:53.762Z,101324.56
2022-09-07T08:09:23.579Z,101335.77
2022-09-07T08:11:53.548Z,101329.78
2022-09-07T08:14:23.396Z,101326.23
2022-09-07T08:16:53.148Z,101328.77
2022-09-07T08:19:22.895Z,101332.70
2022-09-07T08:21:53.015Z,101329.05
2022-09-07T08:24:22.681Z,101330.44
2022-09-07T08:26:52.706Z,101332.14
2022-09-07T08:29:22.444Z,101331.45
2022-09-07T08:31:52.676Z,101339.57
2022-09-07T08:34:22.569Z,101336.59
2022-09-07T08:36:52.012Z,101343.91
2022-09-07T08:39:21.832Z,101348.91
2022-09-07T08:44:55.230Z,101342.98
2022-09-07T08:47:48.999Z,101329.81
2022-09-07T08:50:28.797Z,101339.41
2022-09-07T08:53:04.545Z,101337.17
2022-09-07T08:55:37.383Z,101349.24
2022-09-07T08:58:47.630Z,101353.75
2022-09-07T09:01:30.636Z,101357.39
2022-09-07T09:03:33.053Z,101360.03
2022-09-07T09:06:08.403Z,101358.42
2022-09-07T09:08:50.097Z,101357.66
2022-09-07T09:11:25.925Z,101352.93
2022-09-07T09:14:14.831Z,101356.26
2022-09-07T09:17:02.104Z,101345.16
2022-09-07T09:20:01.424Z,101350.17
2022-09-07T09:22:31.271Z,101356.02
2022-09-07T09:25:06.718Z,101356.02
2022-09-07T09:27:36.469Z,101352.05
2022-09-07T09:30:17.952Z,101344.89
2022-09-07T09:32:50.549Z,101339.31
2022-09-07T09:35:29.752Z,101338.36
2022-09-07T09:37:59.942Z,101345.45
2022-09-07T09:40:32.713Z,101345.16
2022-09-07T09:43:20.440Z,101351.53
2022-09-07T09:48:36.084Z,101341.44
2022-09-07T09:53:42.534Z,101342.77
2022-09-07T09:56:12.234Z,101350.84
2022-09-07T10:01:28.008Z,101352.37
2022-09-07T10:04:01.355Z,101349.70
2022-09-07T10:06:32.075Z,101353.16
2022-09-07T10:09:05.010Z,101342.59
2022-09-07T10:14:35.662Z,101334.92
2022-09-07T10:17:32.302Z,101335.03
2022-09-07T10:20:04.784Z,101334.44
2022-09-07T10:22:37.030Z,101317.59
2022-09-07T10:25:10.773Z,101317.59
2022-09-07T10:27:40.860Z,101324.19
2022-09-07T10:30:17.718Z,101318.22
2022-09-07T10:32:55.978Z,101326.22
2022-09-07T10:35:40.432Z,101317.86
2022-09-07T10:38:25.813Z,101323.02
2022-09-07T10:40:58.639Z,101317.52
2022-09-07T10:43:49.801Z,101323.19
2022-09-07T10:49:12.307Z,101315.14
2022-09-07T10:51:44.811Z,101321.22
2022-09-07T10:54:31.124Z,101316.82
2022-09-07T10:57:06.954Z,101321.78
2022-09-07T11:05:46.985Z,101314.53
2022-09-07T11:08:19.729Z,101313.16
2022-09-07T11:10:58.192Z,101308.56
2022-09-07T11:13:31.290Z,101310.97
2022-09-07T11:16:04.157Z,101301.98
2022-09-07T11:18:41.972Z,101301.53
2022-09-07T11:21:56.230Z,101307.65
2022-09-07T11:23:57.791Z,101304.37
2022-09-07T11:26:33.235Z,101307.17
2022-09-07T11:31:42.380Z,101307.18
2022-09-07T11:34:46.016Z,101302.94
2022-09-07T11:37:33.428Z,101300.71
2022-09-07T11:40:06.344Z,101302.72
2022-09-07T11:42:43.489Z,101280.22
2022-09-07T11:45:34.531Z,101280.22
2022-09-07T11:48:19.574Z,101291.11
2022-09-07T11:50:52.555Z,101294.87
2022-09-07T11:53:31.339Z,101271.87
2022-09-07T11:56:04.104Z,101271.87
2022-09-07T11:58:53.262Z,101294.08
2022-09-07T12:01:31.888Z,101287.42
2022-09-07T12:04:15.847Z,101279.77
2022-09-07T12:06:48.616Z,101287.41
2022-09-07T12:09:37.472Z,101287.41
2022-09-07T12:12:46.659Z,101288.68
2022-09-07T12:15:26.751Z,101284.45
2022-09-07T12:18:19.842Z,101284.39
2022-09-07T12:20:50.482Z,101277.52
2022-09-07T12:23:23.250Z,101278.52
2022-09-07T12:25:53.595Z,101275.43
2022-09-07T12:28:29.233Z,101280.47
2022-09-07T12:31:04.460Z,101274.92
2022-09-07T12:33:39.252Z,101275.12
2022-09-07T12:36:32.663Z,101267.87
2022-09-07T12:39:25.009Z,101277.27
2022-09-07T12:44:40.518Z,101269.70
2022-09-07T12:47:16.121Z,101264.00
2022-09-07T12:50:06.175Z,101251.09
2022-09-07T12:52:47.612Z,101258.90
2022-09-07T12:58:23.787Z,101240.47
2022-09-07T13:01:05.227Z,101225.11
2022-09-07T13:03:50.247Z,101225.11
2022-09-07T13:09:37.524Z,101232.31
2022-09-07T13:14:59.650Z,101228.23
2022-09-07T13:17:41.759Z,101221.75
2022-09-07T13:20:21.034Z,101218.78
2022-09-07T13:22:53.814Z,101211.09
2022-09-07T13:25:29.596Z,101212.35
2022-09-07T13:28:02.637Z,101207.23
2022-09-07T13:30:47.272Z,101209.24
2022-09-07T13:33:32.543Z,101205.88
2022-09-07T13:36:05.121Z,101205.77
2022-09-07T13:38:36.818Z,101202.33
2022-09-07T13:41:14.973Z,101198.60
2022-09-07T13:43:51.724Z,101200.27
2022-09-07T13:46:42.019Z,101200.27
2022-09-07T13:49:20.122Z,101197.94
2022-09-07T13:52:07.735Z,101194.67
2022-09-07T13:54:51.599Z,101193.61
2022-09-07T13:57:33.247Z,101195.26
2022-09-07T14:00:03.114Z,101186.81
2022-09-07T14:02:37.474Z,101183.16
2022-09-07T14:05:11.435Z,101183.56
2022-09-07T14:07:44.221Z,101156.06
2022-09-07T14:10:24.905Z,101156.06
2022-09-07T14:13:08.580Z,101166.63
2022-09-07T14:15:46.940Z,101174.05
2022-09-07T14:18:19.358Z,101177.29
2022-09-07T14:20:53.805Z,101174.25
2022-09-07T14:23:35.526Z,101178.05
2022-09-07T14:26:20.009Z,101183.41
2022-09-07T14:28:52.449Z,101175.64
2022-09-07T14:31:25.236Z,101171.73
2022-09-07T14:33:57.539Z,101178.03
2022-09-07T14:36:44.076Z,101186.47
2022-09-07T14:39:09.780Z,101183.59
2022-09-07T14:41:41.820Z,101171.97
2022-09-07T14:44:35.432Z,101168.15
2022-09-07T14:47:12.486Z,101164.28
2022-09-07T14:49:43.637Z,101160.10
2022-09-07T14:52:16.940Z,101157.01
2022-09-07T14:54:49.698Z,101164.54
2022-09-07T14:57:25.582Z,101158.58
2022-09-07T14:59:57.209Z,101167.16
2022-09-07T15:02:36.193Z,101163.61
2022-09-07T15:05:23.066Z,101158.00
2022-09-07T15:07:57.940Z,101158.22
2022-09-07T15:10:35.178Z,101152.64
2022-09-07T15:13:07.114Z,101156.67
2022-09-07T15:15:40.313Z,101152.14
2022-09-07T15:18:53.316Z,101147.89
2022-09-07T15:21:28.369Z,101142.25
2022-09-07T15:23:59.595Z,101149.06
2022-09-07T15:29:12.857Z,101152.20
2022-09-07T15:31:49.737Z,101149.34
2022-09-07T15:34:20.029Z,101140.16
2022-09-07T15:36:52.941Z,101152.25
2022-09-07T15:39:25.807Z,101148.19
2022-09-07T15:41:55.777Z,101144.80
2022-09-07T15:44:28.059Z,101147.79
2022-09-07T15:49:29.137Z,101151.35
2022-09-07T15:52:06.631Z,101140.92
2022-09-07T15:54:31.105Z,101146.78
2022-09-07T15:59:33.461Z,101136.06
2022-09-07T16:02:03.358Z,101137.16
2022-09-07T16:04:33.322Z,101129.99
2022-09-07T16:07:03.049Z,101136.45
2022-09-07T16:09:32.764Z,101128.34
2022-09-07T16:14:35.111Z,101129.63
2022-09-07T16:19:40.633Z,101120.86
2022-09-07T16:22:09.961Z,101119.59
2022-09-07T16:24:40.304Z,101120.60
2022-09-07T16:27:10.704Z,101119.16
2022-09-07T16:29:40.254Z,101123.69
2022-09-07T16:34:42.829Z,101120.19
2022-09-07T16:37:12.663Z,101094.65
2022-09-07T16:39:42.807Z,101094.65
2022-09-07T16:42:12.667Z,101114.83
2022-09-07T16:44:42.670Z,101116.17
2022-09-07T16:47:12.738Z,101111.57
2022-09-07T16:49:42.461Z,101112.63
2022-09-07T16:52:12.194Z,101111.63
2022-09-07T16:54:41.978Z,101114.02
2022-09-07T16:57:11.722Z,101124.65
2022-09-07T16:59:41.455Z,101119.81
2022-09-07T17:02:18.479Z,101120.59
2022-09-07T17:04:48.032Z,101121.98
2022-09-07T17:07:17.756Z,101121.78
2022-09-07T17:09:47.473Z,101096.36
2022-09-07T17:12:16.933Z,101096.36
2022-09-07T17:14:46.647Z,101110.89
2022-09-07T17:17:16.414Z,101107.11
2022-09-07T17:19:46.132Z,101107.11
2022-09-07T17:22:16.200Z,101114.84
2022-09-07T17:24:46.454Z,101117.21
2022-09-07T17:27:17.112Z,101098.08
2022-09-07T17:29:46.863Z,101098.08
2022-09-07T17:32:25.039Z,101113.81
2022-09-07T17:34:48.529Z,101119.85
2022-09-07T17:37:18.253Z,101121.05
2022-09-07T17:39:48.118Z,101108.05
2022-09-07T17:42:17.954Z,101106.48
2022-09-07T17:44:52.794Z,101099.87
2022-09-07T17:47:19.089Z,101092.41
2022-09-07T17:49:48.818Z,101092.72
2022-09-07T17:52:18.539Z,101081.03
2022-09-07T17:54:48.808Z,101058.67
2022-09-07T17:57:18.241Z,101058.67
2022-09-07T18:02:21.072Z,101081.63
2022-09-07T18:04:50.921Z,101089.94
2022-09-07T18:07:20.597Z,101089.15
2022-09-07T18:09:50.333Z,101093.91
2022-09-07T18:12:20.074Z,101079.16
2022-09-07T18:14:49.801Z,101079.16
2022-09-07T18:17:19.815Z,101095.50
2022-09-07T18:19:49.544Z,101090.59
2022-09-07T18:22:19.451Z,101094.03
2022-09-07T18:24:50.848Z,101094.03
2022-09-07T18:27:21.321Z,101099.25
2022-09-07T18:29:51.047Z,101099.05
2022-09-07T18:32:20.477Z,101093.95
2022-09-07T18:34:50.868Z,101102.84
2022-09-07T18:37:20.771Z,101099.75
2022-09-07T18:39:50.563Z,101102.34
2022-09-07T18:42:20.042Z,101101.31
2022-09-07T18:47:27.241Z,101099.96
2022-09-07T18:49:52.765Z,101101.37
2022-09-07T18:54:54.825Z,101101.49
2022-09-07T18:57:25.137Z,101099.73
2022-09-07T18:59:54.935Z,101101.16
2022-09-07T19:02:24.802Z,101095.41
2022-09-07T19:07:29.542Z,101095.38
2022-09-07T19:09:58.136Z,101094.91
2022-09-07T19:12:27.790Z,101094.91
2022-09-07T19:14:57.513Z,101095.48
2022-09-07T19:17:27.537Z,101100.23
2022-09-07T19:19:57.624Z,101102.75
2022-09-07T19:22:27.612Z,101102.77
2022-09-07T19:24:57.643Z,101102.84
2022-09-07T19:27:27.732Z,101099.19
2022-09-07T19:29:57.461Z,101102.27
2022-09-07T19:32:26.910Z,101101.47
2022-09-07T19:34:56.637Z,101103.11
2022-09-07T19:37:28.363Z,101105.06
2022-09-07T19:39:58.799Z,101097.83
2022-09-07T19:42:28.729Z,101096.72
2022-09-07T19:44:58.635Z,101102.84
2022-09-07T19:47:28.729Z,101102.56
2022-09-07T19:49:58.464Z,101103.40
2022-09-07T19:52:28.182Z,101102.28
2022-09-07T19:54:59.546Z,101090.61
2022-09-07T19:57:29.337Z,101090.61
2022-09-07T20:00:00.141Z,101100.88
2022-09-07T20:02:29.863Z,101101.72
2022-09-07T20:04:59.587Z,101098.08
2022-09-07T20:07:29.323Z,101097.25
2022-09-07T20:09:59.039Z,101095.57
2022-09-07T20:12:28.767Z,101091.97
2022-09-07T20:14:58.491Z,101089.48
2022-09-07T20:17:34.449Z,101090.29
2022-09-07T20:20:00.307Z,101088.09
2022-09-07T20:22:31.301Z,101085.03
2022-09-07T20:25:01.029Z,101080.02
2022-09-07T20:27:30.923Z,101079.98
2022-09-07T20:30:00.951Z,101079.17
2022-09-07T20:32:31.044Z,101073.31
2022-09-07T20:35:01.563Z,101073.56
2022-09-07T20:37:31.581Z,101044.38
2022-09-07T20:40:01.778Z,101049.10
2022-09-07T20:42:31.535Z,101049.10
2022-09-07T20:45:02.206Z,101063.58
2022-09-07T20:47:32.017Z,101057.41
2022-09-07T20:50:01.746Z,101052.12
2022-09-07T20:52:31.538Z,101050.73
2022-09-07T20:55:01.551Z,101042.41
2022-09-07T20:57:31.579Z,101048.52
2022-09-07T21:00:01.679Z,101046.06
2022-09-07T21:02:32.635Z,101048.52
2022-09-07T21:05:02.355Z,101042.72
2022-09-07T21:07:32.082Z,101035.19
2022-09-07T21:10:06.042Z,101034.62
2022-09-07T21:12:33.708Z,101032.14
2022-09-07T21:15:03.645Z,101035.77
2022-09-07T21:17:33.760Z,101037.39
2022-09-07T21:20:03.827Z,101034.06
2022-09-07T21:22:33.549Z,101033.81
2022-09-07T21:25:03.578Z,101014.61
2022-09-07T21:27:38.219Z,101014.61
2022-09-07T21:30:08.861Z,101022.14
2022-09-07T21:32:40.258Z,101028.81
2022-09-07T21:35:13.061Z,101031.25
2022-09-07T21:37:42.871Z,101029.06
2022-09-07T21:40:13.523Z,101029.66
2022-09-07T21:42:43.231Z,101038.03
2022-09-07T21:45:12.952Z,101012.14
2022-09-07T21:47:42.673Z,101012.14
2022-09-07T21:50:14.200Z,101029.03
2022-09-07T21:52:43.922Z,101030.12
2022-09-07T21:55:13.648Z,101030.73
2022-09-07T21:57:43.680Z,101028.81
2022-09-07T22:00:15.998Z,101027.42
2022-09-07T22:02:45.787Z,101017.16
2022-09-07T22:05:15.641Z,101018.77
2022-09-07T22:07:45.099Z,101022.38
2022-09-07T22:10:15.972Z,101022.12
2022-09-07T22:12:45.693Z,101022.09
2022-09-07T22:15:15.484Z,101028.27
2022-09-07T22:17:46.388Z,101032.74
2022-09-07T22:20:16.238Z,101028.55
2022-09-07T22:22:46.427Z,101024.64
2022-09-07T22:25:16.216Z,101016.91
2022-09-07T22:27:45.948Z,101004.38
2022-09-07T22:30:15.821Z,101000.78
2022-09-07T22:32:49.245Z,100994.11
2022-09-07T22:35:20.058Z,100999.10
2022-09-07T22:37:50.482Z,100997.19
2022-09-07T22:40:19.982Z,100999.70
2022-09-07T22:42:49.693Z,100998.55
2022-09-07T22:45:19.516Z,100995.20
2022-09-07T22:47:49.263Z,100991.62
2022-09-07T22:50:20.235Z,100988.27
2022-09-07T22:52:50.317Z,100991.06
2022-09-07T22:55:19.757Z,100987.69
2022-09-07T22:57:49.482Z,100989.63
2022-09-07T23:00:19.122Z,100983.80
2022-09-07T23:02:49.219Z,100989.37
2022-09-07T23:05:18.720Z,100981.30
2022-09-07T23:07:49.812Z,100976.07
2022-09-07T23:10:19.704Z,100967.16
2022-09-07T23:12:49.494Z,100965.53
2022-09-07T23:15:19.212Z,100965.77
2022-09-07T23:17:48.937Z,100961.33
2022-09-07T23:20:18.727Z,100970.80
2022-09-07T23:22:48.884Z,100971.92
2022-09-07T23:25:18.653Z,100966.90
2022-09-07T23:27:48.860Z,100963.83
2022-09-07T23:30:18.771Z,100959.34
2022-09-07T23:32:48.215Z,100943.69
2022-09-07T23:35:17.895Z,100943.69
2022-09-07T23:37:47.950Z,100958.39
2022-09-07T23:40:17.943Z,100962.86
2022-09-07T23:42:48.404Z,100965.04
2022-09-07T23:45:18.107Z,100966.95
2022-09-07T23:47:47.829Z,100972.50
2022-09-07T23:50:17.797Z,100963.41
2022-09-07T23:52:47.389Z,100961.68
2022-09-07T23:55:17.202Z,100959.50
2022-09-07T23:57:47.061Z,100948.44
